createdAt,value
2022-11-03T14:04:44.603Z,57.33
2022-11-03T14:09:47.153Z,57.99
2022-11-03T14:14:48.949Z,59.15
2022-11-03T14:19:52.839Z,59.63
2022-11-03T14:24:57.127Z,60.17
2022-11-03T14:29:59.006Z,60.83
2022-11-03T14:35:00.911Z,61.10
2022-11-03T14:40:03.159Z,61.40
2022-11-03T14:45:05.412Z,61.43
2022-11-03T14:50:07.747Z,61.58
2022-11-03T14:55:09.664Z,61.93
2022-11-03T15:00:11.840Z,62.04
2022-11-03T15:05:33.631Z,62.29
2022-11-03T15:10:35.427Z,62.82
2022-11-03T15:15:37.334Z,61.65
2022-11-03T15:20:39.177Z,61.19
2022-11-03T15:25:41.047Z,61.06
2022-11-03T15:30:42.926Z,61.03
2022-11-03T15:35:45.344Z,61.06
2022-11-03T15:40:47.177Z,61.14
2022-11-03T15:45:48.932Z,61.44
2022-11-03T15:50:50.946Z,61.67
2022-11-03T15:55:52.843Z,62.01
2022-11-03T16:00:54.723Z,62.05
2022-11-03T16:05:56.716Z,62.26
2022-11-03T16:10:58.606Z,62.38
2022-11-03T16:16:00.502Z,62.37
2022-11-03T16:21:02.489Z,62.53
2022-11-03T16:26:05.746Z,62.80
2022-11-03T16:31:07.549Z,62.92
2022-11-03T16:36:09.460Z,63.40
2022-11-03T16:41:11.822Z,63.87
2022-11-03T16:46:13.675Z,64.21
2022-11-03T16:51:15.509Z,64.71
2022-11-03T16:56:17.350Z,65.11
2022-11-03T17:01:19.303Z,65.52
2022-11-03T17:06:21.367Z,65.77
2022-11-03T17:11:49.388Z,66.03
2022-11-03T17:16:51.313Z,66.19
2022-11-03T17:21:53.770Z,66.05
2022-11-03T17:27:07.568Z,65.88
2022-11-03T17:32:22.159Z,65.86
2022-11-03T17:37:25.200Z,65.64
2022-11-03T17:42:28.617Z,65.50
2022-11-03T17:47:31.853Z,65.35
2022-11-03T17:52:34.116Z,65.22
2022-11-03T17:57:36.574Z,65.11
2022-11-03T18:02:40.600Z,65.00
2022-11-03T18:07:42.943Z,65.03
2022-11-03T18:13:07.509Z,64.94
2022-11-03T18:18:14.664Z,65.09
2022-11-03T18:23:30.515Z,65.02
2022-11-03T18:28:32.345Z,64.86
2022-11-03T18:33:36.139Z,64.71
2022-11-03T18:38:41.466Z,64.79
2022-11-03T18:43:43.269Z,64.74
2022-11-03T18:48:45.099Z,64.68
2022-11-03T18:53:46.975Z,64.80
2022-11-03T18:58:52.639Z,64.87
2022-11-03T19:03:56.395Z,64.93
2022-11-03T19:08:59.807Z,64.98
2022-11-03T19:14:01.827Z,65.08
2022-11-03T19:19:04.164Z,65.20
2022-11-03T19:24:06.268Z,65.38
2022-11-03T19:29:14.750Z,65.48
2022-11-03T19:34:20.047Z,65.44
2022-11-03T19:39:36.083Z,65.64
2022-11-03T19:44:37.960Z,65.79
2022-11-03T19:49:39.810Z,65.91
2022-11-03T19:54:48.756Z,65.88
2022-11-03T19:59:50.539Z,65.89
2022-11-03T20:04:52.326Z,65.93
2022-11-03T20:09:54.137Z,65.99
2022-11-03T20:14:55.975Z,66.09
2022-11-03T20:19:57.993Z,66.50
2022-11-03T20:25:03.323Z,66.68
2022-11-03T20:30:05.942Z,67.15
2022-11-03T20:35:13.448Z,67.36
2022-11-03T20:40:19.466Z,67.46
2022-11-03T20:45:23.314Z,68.01
2022-11-03T20:50:25.872Z,67.76
2022-11-03T20:55:27.662Z,68.06
2022-11-03T21:00:31.735Z,68.16
2022-11-03T21:05:33.607Z,68.37
2022-11-03T21:10:36.035Z,68.27
2022-11-03T21:16:23.004Z,68.25
2022-11-03T21:21:21.495Z,68.21
2022-11-03T21:26:23.386Z,68.31
2022-11-03T21:31:25.234Z,68.32
2022-11-03T21:36:27.022Z,68.44
2022-11-03T21:41:47.758Z,68.57
2022-11-03T21:46:49.536Z,68.81
2022-11-03T21:51:51.397Z,69.09
2022-11-03T21:56:53.262Z,69.38
2022-11-03T22:01:55.403Z,69.36
2022-11-03T22:06:59.102Z,69.34
2022-11-03T22:12:05.673Z,69.31
2022-11-03T22:17:07.540Z,69.28
2022-11-03T22:22:33.707Z,69.31
2022-11-03T22:27:35.543Z,69.08
2022-11-03T22:32:39.917Z,68.49
2022-11-03T22:37:42.071Z,66.95
2022-11-03T22:43:03.590Z,66.80
2022-11-03T22:48:09.475Z,67.12
2022-11-03T22:53:30.498Z,67.25
2022-11-03T22:58:33.374Z,67.28
2022-11-03T23:03:37.270Z,67.58
2022-11-03T23:08:41.163Z,67.71
2022-11-03T23:13:44.879Z,67.98
2022-11-03T23:19:06.472Z,68.31
2022-11-03T23:24:27.165Z,68.70
2022-11-03T23:29:29.462Z,69.24
2022-11-03T23:34:31.283Z,69.42
2022-11-03T23:39:33.081Z,69.73
2022-11-03T23:44:53.636Z,70.51
2022-11-03T23:49:55.428Z,70.29
2022-11-03T23:54:57.312Z,70.98
2022-11-03T23:59:59.157Z,70.45
